Shacktown, North Carolina
Current Conditions -  °F | °C
As of 6:54 AM on Thursday 29 Jan 2015 (Local Time) from KINT Reporting Station
Clear Clear  
Wind Chill: 25°   Ceiling: Unl
Heat Index: 25°   Visibility: 10mi
Dew Point: 15°   Wind: 0mph
Humidity: 66%   Direction: NA
Pressure: 30.3"   Gusts: NA
Location:  36.1267°N, 80.6582°W
Report Text: KINT 291154Z 00000KT 10SM CLR M04/M09 A3030 RMK AO2 SLP269 T10391094 11006 21044 56002
Loading
Personal Weather Stations






























Interactive Weather Map New forecast layout! Learn more

10-Day Weather Forecast

Advertisements
Track Severe Weather on mobile